Crew | Aerofun Virtual



 METAR AND TAF INFORMATION
METAR FOR EFJY
ADDS - METARS form results

(1543 UTC 24 May 2019)
Data provider http://aviationweather.gov/metar/data/
 
METAR text: EFJY 241520Z AUTO 09007KT 9999 BKN024 09/05 Q1010
Conditions at: EFJY (JYVASKYLA (MIL/C, FI) observed 1520 UTC 24 May 2019
Temperature: 9.0°C (48°F)
Dewpoint: 5.0°C (41°F) [RH = 76%]
Pressure (altimeter): 29.82 inches Hg (1010.0 mb)
Winds: from the E (90 degrees) at 8 MPH (7 knots; 3.6 m/s)
Visibility: 6 or more miles (10+ km)
Ceiling: 2400 feet AGL
Clouds: broken clouds at 2400 feet AGL
Weather: no significant weather observed at this time

METAR text: EFJY 241450Z AUTO 10007KT 9999 BKN025 BKN068 09/05 Q1010
Conditions at: EFJY (JYVASKYLA (MIL/C, FI) observed 1450 UTC 24 May 2019
Temperature: 9.0°C (48°F)
Dewpoint: 5.0°C (41°F) [RH = 76%]
Pressure (altimeter): 29.82 inches Hg (1010.0 mb)
Winds: from the E (100 degrees) at 8 MPH (7 knots; 3.6 m/s)
Visibility: 6 or more miles (10+ km)
Ceiling: 2500 feet AGL
Clouds: broken clouds at 2500 feet AGL
broken clouds at 6800 feet AGL
Weather: no significant weather observed at this time

Forecast for: EFJY (JYVASKYLA (MIL/C, FI)
Text: TAF EFJY 241425Z 2415/2515 11010KT 9999 BKN025
Forecast period: 1500 UTC 24 May 2019 to 1500 UTC 25 May 2019
Forecast type: FROM: standard forecast or significant change
Winds: from the ESE (110 degrees) at 12 MPH (10 knots; 5.1 m/s)
Visibility: 6 or more miles 10+ km)
Ceiling: 2500 feet AGL
Clouds: broken clouds at 2500 feet AGL
Weather: no significant weather forecast for this period
Text: PROB30
Forecast period: 0000 to 0600 UTC 25 May 2019
Forecast type: TEMPORARY: The following changes expected for less than half the time period
Visibility: 4 miles (7 km)
Ceiling: 700 feet AGL
Clouds: broken clouds at 700 feet AGL
Weather: -RA  (light rain)
Text: TEMPO 2500/2506 7000 -RA BKN007
Forecast period: 0600 to 1500 UTC 25 May 2019
Forecast type: TEMPORARY: The following changes expected for less than half the time period
Visibility: 2.49 miles (4.01 km)
Ceiling: 700 feet AGL
Clouds: broken clouds at 700 feet AGL
broken clouds at 5000 feet AGL
Weather: -SHRA  (light rain showers)

 AIRPORT MAP

 RUNWAY INFORMATION
Runway 12 Runway length 8533 ft Runway width 197 ft
Runway elevation 452 ft Runway displaced threshold 0 ft Runway heading 134
Runway 30 Runway length 8533 ft Runway width 197 ft
Runway elevation 407 ft Runway displaced threshold 0 ft Runway heading 314

 AIRPORT FREQUENCIES
Type APP Name APP Frequency 119.7 MHZ
Type ATIS Name ATIS Frequency 134.15 MHZ
Type TWR Name TWR Frequency 118 MHZ

 AIRPORT NEAR NAVIGATION AIDS
Type VOR-DME Name Luonet Frequency 112300 KHZ